sensor_id;sensor_type;location;lat;lon;timestamp;temperature;humidity
44509;DHT22;30214;52.246;14.408;2023-12-14T00:00:38;5.00;99.90
44509;DHT22;30214;52.246;14.408;2023-12-14T00:03:09;5.10;99.90
44509;DHT22;30214;52.246;14.408;2023-12-14T00:05:42;5.10;99.90
44509;DHT22;30214;52.246;14.408;2023-12-14T00:08:11;5.20;99.90
44509;DHT22;30214;52.246;14.408;2023-12-14T00:10:42;5.10;99.90
44509;DHT22;30214;52.246;14.408;2023-12-14T00:13:12;5.10;99.90
44509;DHT22;30214;52.246;14.408;2023-12-14T00:15:45;5.00;99.90
44509;DHT22;30214;52.246;14.408;2023-12-14T00:18:16;5.00;99.90
44509;DHT22;30214;52.246;14.408;2023-12-14T00:20:47;5.00;99.90
44509;DHT22;30214;52.246;14.408;2023-12-14T00:23:16;5.00;99.90
44509;DHT22;30214;52.246;14.408;2023-12-14T00:25:46;5.00;99.90
44509;DHT22;30214;52.246;14.408;2023-12-14T00:28:17;5.00;99.90
44509;DHT22;30214;52.246;14.408;2023-12-14T00:30:47;5.00;99.90
44509;DHT22;30214;52.246;14.408;2023-12-14T00:33:20;5.10;99.90
44509;DHT22;30214;52.246;14.408;2023-12-14T00:35:52;5.10;99.90
44509;DHT22;30214;52.246;14.408;2023-12-14T00:38:22;5.20;99.90
44509;DHT22;30214;52.246;14.408;2023-12-14T00:40:53;5.20;99.90
44509;DHT22;30214;52.246;14.408;2023-12-14T00:43:30;5.20;99.90
44509;DHT22;30214;52.246;14.408;2023-12-14T00:45:59;5.20;99.90
44509;DHT22;30214;52.246;14.408;2023-12-14T00:48:32;5.00;99.90
44509;DHT22;30214;52.246;14.408;2023-12-14T00:51:06;5.00;99.90
44509;DHT22;30214;52.246;14.408;2023-12-14T00:53:37;4.90;99.90
44509;DHT22;30214;52.246;14.408;2023-12-14T00:56:08;4.80;99.90
44509;DHT22;30214;52.246;14.408;2023-12-14T00:58:42;4.90;99.90
44509;DHT22;30214;52.246;14.408;2023-12-14T01:01:11;4.80;99.90
44509;DHT22;30214;52.246;14.408;2023-12-14T01:03:44;4.80;99.90
44509;DHT22;30214;52.246;14.408;2023-12-14T01:06:18;4.80;99.90
44509;DHT22;30214;52.246;14.408;2023-12-14T01:08:49;4.80;99.90
44509;DHT22;30214;52.246;14.408;2023-12-14T01:11:18;4.70;99.90
44509;DHT22;30214;52.246;14.408;2023-12-14T01:13:48;4.70;99.90
44509;DHT22;30214;52.246;14.408;2023-12-14T01:16:17;4.70;99.90
44509;DHT22;30214;52.246;14.408;2023-12-14T01:18:51;4.70;99.90
44509;DHT22;30214;52.246;14.408;2023-12-14T01:21:22;4.70;99.90
44509;DHT22;30214;52.246;14.408;2023-12-14T01:23:55;4.60;99.90
44509;DHT22;30214;52.246;14.408;2023-12-14T01:26:24;4.70;99.90
44509;DHT22;30214;52.246;14.408;2023-12-14T01:28:53;4.70;99.90
44509;DHT22;30214;52.246;14.408;2023-12-14T01:31:23;4.70;99.90
44509;DHT22;30214;52.246;14.408;2023-12-14T01:33:52;4.60;99.90
44509;DHT22;30214;52.246;14.408;2023-12-14T01:36:24;4.50;99.90
44509;DHT22;30214;52.246;14.408;2023-12-14T01:38:58;4.50;99.90
44509;DHT22;30214;52.246;14.408;2023-12-14T01:41:34;4.40;99.90
44509;DHT22;30214;52.246;14.408;2023-12-14T01:44:05;4.40;99.90
44509;DHT22;30214;52.246;14.408;2023-12-14T01:46:34;4.40;99.90
44509;DHT22;30214;52.246;14.408;2023-12-14T01:49:02;4.40;99.90
44509;DHT22;30214;52.246;14.408;2023-12-14T01:51:41;4.30;99.90
44509;DHT22;30214;52.246;14.408;2023-12-14T01:54:13;4.30;99.90
44509;DHT22;30214;52.246;14.408;2023-12-14T01:56:44;4.30;99.90
44509;DHT22;30214;52.246;14.408;2023-12-14T01:59:12;4.30;99.90
44509;DHT22;30214;52.246;14.408;2023-12-14T02:01:43;4.40;99.90
44509;DHT22;30214;52.246;14.408;2023-12-14T02:04:11;4.40;99.90
44509;DHT22;30214;52.246;14.408;2023-12-14T02:06:43;4.40;99.90
44509;DHT22;30214;52.246;14.408;2023-12-14T02:09:14;4.40;99.90
44509;DHT22;30214;52.246;14.408;2023-12-14T02:11:41;4.40;99.90
44509;DHT22;30214;52.246;14.408;2023-12-14T02:14:09;4.40;99.90
44509;DHT22;30214;52.246;14.408;2023-12-14T02:16:37;4.40;99.90
44509;DHT22;30214;52.246;14.408;2023-12-14T02:19:06;4.40;99.90
44509;DHT22;30214;52.246;14.408;2023-12-14T02:21:34;4.40;99.90
44509;DHT22;30214;52.246;14.408;2023-12-14T02:24:03;4.30;99.90
44509;DHT22;30214;52.246;14.408;2023-12-14T02:26:31;4.30;99.90
44509;DHT22;30214;52.246;14.408;2023-12-14T02:29:00;4.40;99.90
44509;DHT22;30214;52.246;14.408;2023-12-14T02:31:27;4.40;99.90
44509;DHT22;30214;52.246;14.408;2023-12-14T02:33:57;4.50;99.90
44509;DHT22;30214;52.246;14.408;2023-12-14T02:36:24;4.50;99.90
44509;DHT22;30214;52.246;14.408;2023-12-14T02:38:51;4.40;99.90
44509;DHT22;30214;52.246;14.408;2023-12-14T02:41:25;4.40;99.90
44509;DHT22;30214;52.246;14.408;2023-12-14T02:43:52;4.40;99.90
44509;DHT22;30214;52.246;14.408;2023-12-14T02:46:23;4.40;99.90
44509;DHT22;30214;52.246;14.408;2023-12-14T02:48:51;4.40;99.90
44509;DHT22;30214;52.246;14.408;2023-12-14T02:51:18;4.40;99.90
44509;DHT22;30214;52.246;14.408;2023-12-14T02:53:45;4.30;99.90
44509;DHT22;30214;52.246;14.408;2023-12-14T02:56:15;4.30;99.90
44509;DHT22;30214;52.246;14.408;2023-12-14T02:58:43;4.40;99.90
44509;DHT22;30214;52.246;14.408;2023-12-14T03:01:10;4.40;99.90
44509;DHT22;30214;52.246;14.408;2023-12-14T03:03:38;4.30;99.90
44509;DHT22;30214;52.246;14.408;2023-12-14T03:06:06;4.30;99.90
44509;DHT22;30214;52.246;14.408;2023-12-14T03:08:33;4.30;99.90
44509;DHT22;30214;52.246;14.408;2023-12-14T03:11:03;4.30;99.90
44509;DHT22;30214;52.246;14.408;2023-12-14T03:13:31;4.20;99.90
44509;DHT22;30214;52.246;14.408;2023-12-14T03:15:59;4.20;99.90
44509;DHT22;30214;52.246;14.408;2023-12-14T03:18:27;4.20;99.90
44509;DHT22;30214;52.246;14.408;2023-12-14T03:20:54;4.20;99.90
44509;DHT22;30214;52.246;14.408;2023-12-14T03:23:21;4.20;99.90
44509;DHT22;30214;52.246;14.408;2023-12-14T03:25:50;4.20;99.90
44509;DHT22;30214;52.246;14.408;2023-12-14T03:28:17;4.20;99.90
44509;DHT22;30214;52.246;14.408;2023-12-14T03:30:44;4.20;99.90
44509;DHT22;30214;52.246;14.408;2023-12-14T03:33:13;4.20;99.90
44509;DHT22;30214;52.246;14.408;2023-12-14T03:35:41;4.20;99.90
44509;DHT22;30214;52.246;14.408;2023-12-14T03:38:09;4.20;99.90
44509;DHT22;30214;52.246;14.408;2023-12-14T03:40:36;4.20;99.90
44509;DHT22;30214;52.246;14.408;2023-12-14T03:43:03;4.20;99.90
44509;DHT22;30214;52.246;14.408;2023-12-14T03:45:31;4.20;99.90
44509;DHT22;30214;52.246;14.408;2023-12-14T03:47:58;4.20;99.90
44509;DHT22;30214;52.246;14.408;2023-12-14T03:50:27;4.20;99.90
44509;DHT22;30214;52.246;14.408;2023-12-14T03:52:57;4.20;99.90
44509;DHT22;30214;52.246;14.408;2023-12-14T03:55:25;4.20;99.90
44509;DHT22;30214;52.246;14.408;2023-12-14T03:57:52;4.20;99.90
44509;DHT22;30214;52.246;14.408;2023-12-14T04:00:20;4.20;99.90
44509;DHT22;30214;52.246;14.408;2023-12-14T04:02:47;4.10;99.90
44509;DHT22;30214;52.246;14.408;2023-12-14T04:05:13;4.20;99.90
44509;DHT22;30214;52.246;14.408;2023-12-14T04:07:44;4.20;99.90
44509;DHT22;30214;52.246;14.408;2023-12-14T04:10:12;4.20;99.90
44509;DHT22;30214;52.246;14.408;2023-12-14T04:12:40;4.20;99.90
44509;DHT22;30214;52.246;14.408;2023-12-14T04:15:09;4.20;99.90
44509;DHT22;30214;52.246;14.408;2023-12-14T04:17:37;4.20;99.90
44509;DHT22;30214;52.246;14.408;2023-12-14T04:20:07;4.20;99.90
44509;DHT22;30214;52.246;14.408;2023-12-14T04:22:35;4.20;99.90
44509;DHT22;30214;52.246;14.408;2023-12-14T04:25:05;4.20;99.90
44509;DHT22;30214;52.246;14.408;2023-12-14T04:27:33;4.20;99.90
44509;DHT22;30214;52.246;14.408;2023-12-14T04:30:00;4.20;99.90
44509;DHT22;30214;52.246;14.408;2023-12-14T04:32:30;4.20;99.90
44509;DHT22;30214;52.246;14.408;2023-12-14T04:34:57;4.20;99.90
44509;DHT22;30214;52.246;14.408;2023-12-14T04:37:24;4.20;99.90
44509;DHT22;30214;52.246;14.408;2023-12-14T04:39:52;4.20;99.90
44509;DHT22;30214;52.246;14.408;2023-12-14T04:42:20;4.20;99.90
44509;DHT22;30214;52.246;14.408;2023-12-14T04:44:48;4.10;99.90
44509;DHT22;30214;52.246;14.408;2023-12-14T04:47:16;4.10;99.90
44509;DHT22;30214;52.246;14.408;2023-12-14T04:49:43;4.10;99.90
44509;DHT22;30214;52.246;14.408;2023-12-14T04:52:10;4.10;99.90
44509;DHT22;30214;52.246;14.408;2023-12-14T04:54:38;4.10;99.90
44509;DHT22;30214;52.246;14.408;2023-12-14T04:57:06;4.20;99.90
44509;DHT22;30214;52.246;14.408;2023-12-14T04:59:35;4.20;99.90
44509;DHT22;30214;52.246;14.408;2023-12-14T05:02:02;4.20;99.90
44509;DHT22;30214;52.246;14.408;2023-12-14T05:04:29;4.20;99.90
44509;DHT22;30214;52.246;14.408;2023-12-14T05:06:57;4.10;99.90
44509;DHT22;30214;52.246;14.408;2023-12-14T05:09:24;4.10;99.90
44509;DHT22;30214;52.246;14.408;2023-12-14T05:11:52;4.10;99.90
44509;DHT22;30214;52.246;14.408;2023-12-14T05:14:19;4.10;99.90
44509;DHT22;30214;52.246;14.408;2023-12-14T05:16:48;4.00;99.90
44509;DHT22;30214;52.246;14.408;2023-12-14T05:19:16;4.00;99.90
44509;DHT22;30214;52.246;14.408;2023-12-14T05:21:43;4.10;99.90
44509;DHT22;30214;52.246;14.408;2023-12-14T05:24:13;4.10;99.90
44509;DHT22;30214;52.246;14.408;2023-12-14T05:26:40;4.10;99.90
44509;DHT22;30214;52.246;14.408;2023-12-14T05:29:08;4.10;99.90
44509;DHT22;30214;52.246;14.408;2023-12-14T05:31:37;4.10;99.90
44509;DHT22;30214;52.246;14.408;2023-12-14T05:34:15;4.00;99.90
44509;DHT22;30214;52.246;14.408;2023-12-14T05:36:42;4.00;99.90
44509;DHT22;30214;52.246;14.408;2023-12-14T05:39:10;4.00;99.90
44509;DHT22;30214;52.246;14.408;2023-12-14T05:41:40;4.00;99.90
44509;DHT22;30214;52.246;14.408;2023-12-14T05:44:08;4.10;99.90
44509;DHT22;30214;52.246;14.408;2023-12-14T05:46:36;4.10;99.90
44509;DHT22;30214;52.246;14.408;2023-12-14T05:49:04;4.10;99.90
44509;DHT22;30214;52.246;14.408;2023-12-14T05:51:33;4.00;99.90
44509;DHT22;30214;52.246;14.408;2023-12-14T05:54:02;4.00;99.90
44509;DHT22;30214;52.246;14.408;2023-12-14T05:56:29;4.00;99.90
44509;DHT22;30214;52.246;14.408;2023-12-14T05:58:58;3.90;99.90
44509;DHT22;30214;52.246;14.408;2023-12-14T06:01:34;3.90;99.90
44509;DHT22;30214;52.246;14.408;2023-12-14T06:04:02;4.00;99.90
44509;DHT22;30214;52.246;14.408;2023-12-14T06:06:30;4.10;99.90
44509;DHT22;30214;52.246;14.408;2023-12-14T06:08:59;4.20;99.90
44509;DHT22;30214;52.246;14.408;2023-12-14T06:11:26;4.20;99.90
44509;DHT22;30214;52.246;14.408;2023-12-14T06:13:59;4.10;99.90
44509;DHT22;30214;52.246;14.408;2023-12-14T06:16:28;4.10;99.90
44509;DHT22;30214;52.246;14.408;2023-12-14T06:18:56;4.10;99.90
44509;DHT22;30214;52.246;14.408;2023-12-14T06:21:23;4.30;99.90
44509;DHT22;30214;52.246;14.408;2023-12-14T06:23:54;4.20;99.90
44509;DHT22;30214;52.246;14.408;2023-12-14T06:26:23;4.20;99.90
44509;DHT22;30214;52.246;14.408;2023-12-14T06:28:50;4.20;99.90
44509;DHT22;30214;52.246;14.408;2023-12-14T06:31:18;4.20;99.90
44509;DHT22;30214;52.246;14.408;2023-12-14T06:33:47;4.10;99.90
44509;DHT22;30214;52.246;14.408;2023-12-14T06:36:16;4.10;99.90
44509;DHT22;30214;52.246;14.408;2023-12-14T06:38:44;4.10;99.90
44509;DHT22;30214;52.246;14.408;2023-12-14T06:41:18;4.10;99.90
44509;DHT22;30214;52.246;14.408;2023-12-14T06:43:46;4.00;99.90
44509;DHT22;30214;52.246;14.408;2023-12-14T06:46:14;3.90;99.90
44509;DHT22;30214;52.246;14.408;2023-12-14T06:48:42;3.90;99.90
44509;DHT22;30214;52.246;14.408;2023-12-14T06:51:09;3.90;99.90
44509;DHT22;30214;52.246;14.408;2023-12-14T06:53:38;3.80;99.90
44509;DHT22;30214;52.246;14.408;2023-12-14T06:56:07;3.80;99.90
44509;DHT22;30214;52.246;14.408;2023-12-14T06:58:36;3.80;99.90
44509;DHT22;30214;52.246;14.408;2023-12-14T07:01:05;3.70;99.90
44509;DHT22;30214;52.246;14.408;2023-12-14T07:03:32;3.70;99.90
44509;DHT22;30214;52.246;14.408;2023-12-14T07:06:00;3.60;99.90
44509;DHT22;30214;52.246;14.408;2023-12-14T07:08:27;3.60;99.90
44509;DHT22;30214;52.246;14.408;2023-12-14T07:10:55;3.60;99.90
44509;DHT22;30214;52.246;14.408;2023-12-14T07:13:23;3.60;99.90
44509;DHT22;30214;52.246;14.408;2023-12-14T07:15:52;3.50;99.90
44509;DHT22;30214;52.246;14.408;2023-12-14T07:18:20;3.50;99.90
44509;DHT22;30214;52.246;14.408;2023-12-14T07:20:49;3.50;99.90
44509;DHT22;30214;52.246;14.408;2023-12-14T07:23:17;3.60;99.90
44509;DHT22;30214;52.246;14.408;2023-12-14T07:25:44;3.50;99.90
44509;DHT22;30214;52.246;14.408;2023-12-14T07:28:12;3.40;99.90
44509;DHT22;30214;52.246;14.408;2023-12-14T07:30:39;3.40;99.90
44509;DHT22;30214;52.246;14.408;2023-12-14T07:33:07;3.30;99.90
44509;DHT22;30214;52.246;14.408;2023-12-14T07:35:36;3.30;99.90
44509;DHT22;30214;52.246;14.408;2023-12-14T07:38:03;3.20;99.90
44509;DHT22;30214;52.246;14.408;2023-12-14T07:40:31;3.20;99.90
44509;DHT22;30214;52.246;14.408;2023-12-14T07:42:59;3.20;99.90
44509;DHT22;30214;52.246;14.408;2023-12-14T07:45:27;3.20;99.90
44509;DHT22;30214;52.246;14.408;2023-12-14T07:47:54;3.20;99.90
44509;DHT22;30214;52.246;14.408;2023-12-14T07:50:22;3.30;99.90
44509;DHT22;30214;52.246;14.408;2023-12-14T07:52:51;3.30;99.90
44509;DHT22;30214;52.246;14.408;2023-12-14T07:55:20;3.20;99.90
44509;DHT22;30214;52.246;14.408;2023-12-14T07:57:49;3.20;99.90
44509;DHT22;30214;52.246;14.408;2023-12-14T08:00:17;3.30;99.90
44509;DHT22;30214;52.246;14.408;2023-12-14T08:02:45;3.30;99.90
44509;DHT22;30214;52.246;14.408;2023-12-14T08:05:12;3.30;99.90
44509;DHT22;30214;52.246;14.408;2023-12-14T08:07:40;3.30;99.90
44509;DHT22;30214;52.246;14.408;2023-12-14T08:10:09;3.40;99.90
44509;DHT22;30214;52.246;14.408;2023-12-14T08:12:37;3.40;99.90
44509;DHT22;30214;52.246;14.408;2023-12-14T08:15:04;3.30;99.90
44509;DHT22;30214;52.246;14.408;2023-12-14T08:17:33;3.30;99.90
44509;DHT22;30214;52.246;14.408;2023-12-14T08:20:01;3.20;99.90
44509;DHT22;30214;52.246;14.408;2023-12-14T08:22:30;3.20;99.90
44509;DHT22;30214;52.246;14.408;2023-12-14T08:24:57;3.20;99.90
44509;DHT22;30214;52.246;14.408;2023-12-14T08:27:26;3.20;99.90
44509;DHT22;30214;52.246;14.408;2023-12-14T08:29:53;3.20;99.90
44509;DHT22;30214;52.246;14.408;2023-12-14T08:32:21;3.00;99.90
44509;DHT22;30214;52.246;14.408;2023-12-14T08:34:48;3.00;99.90
44509;DHT22;30214;52.246;14.408;2023-12-14T08:37:15;3.10;99.90
44509;DHT22;30214;52.246;14.408;2023-12-14T08:39:43;3.10;99.90
44509;DHT22;30214;52.246;14.408;2023-12-14T08:42:12;3.10;99.90
44509;DHT22;30214;52.246;14.408;2023-12-14T08:44:41;3.10;99.90
44509;DHT22;30214;52.246;14.408;2023-12-14T08:47:11;3.00;99.90
44509;DHT22;30214;52.246;14.408;2023-12-14T08:49:38;3.00;99.90
44509;DHT22;30214;52.246;14.408;2023-12-14T08:52:05;2.90;99.90
44509;DHT22;30214;52.246;14.408;2023-12-14T08:54:33;2.90;99.90
44509;DHT22;30214;52.246;14.408;2023-12-14T08:57:01;2.80;99.90
44509;DHT22;30214;52.246;14.408;2023-12-14T08:59:29;2.90;99.90
44509;DHT22;30214;52.246;14.408;2023-12-14T09:01:59;2.90;99.90
44509;DHT22;30214;52.246;14.408;2023-12-14T09:04:27;3.00;99.90
44509;DHT22;30214;52.246;14.408;2023-12-14T09:07:02;3.00;99.90
44509;DHT22;30214;52.246;14.408;2023-12-14T09:09:33;2.90;99.90
44509;DHT22;30214;52.246;14.408;2023-12-14T09:12:01;2.90;99.90
44509;DHT22;30214;52.246;14.408;2023-12-14T09:14:28;2.90;99.90
44509;DHT22;30214;52.246;14.408;2023-12-14T09:17:01;2.90;99.90
44509;DHT22;30214;52.246;14.408;2023-12-14T09:19:34;2.90;99.90
44509;DHT22;30214;52.246;14.408;2023-12-14T09:22:05;2.90;99.90
44509;DHT22;30214;52.246;14.408;2023-12-14T09:24:33;2.90;99.90
44509;DHT22;30214;52.246;14.408;2023-12-14T09:27:03;2.90;99.90
44509;DHT22;30214;52.246;14.408;2023-12-14T09:29:30;2.90;99.90
44509;DHT22;30214;52.246;14.408;2023-12-14T09:32:01;2.90;99.90
44509;DHT22;30214;52.246;14.408;2023-12-14T09:34:29;2.90;99.90
44509;DHT22;30214;52.246;14.408;2023-12-14T09:36:57;2.90;99.90
44509;DHT22;30214;52.246;14.408;2023-12-14T09:39:25;2.90;99.90
44509;DHT22;30214;52.246;14.408;2023-12-14T09:42:01;3.00;99.90
44509;DHT22;30214;52.246;14.408;2023-12-14T09:44:32;3.00;99.90
44509;DHT22;30214;52.246;14.408;2023-12-14T09:47:02;3.10;99.90
44509;DHT22;30214;52.246;14.408;2023-12-14T09:49:31;3.10;99.90
44509;DHT22;30214;52.246;14.408;2023-12-14T09:52:01;3.10;99.90
44509;DHT22;30214;52.246;14.408;2023-12-14T09:54:29;3.20;99.90
44509;DHT22;30214;52.246;14.408;2023-12-14T09:56:58;3.20;99.90
44509;DHT22;30214;52.246;14.408;2023-12-14T09:59:26;3.30;99.90
44509;DHT22;30214;52.246;14.408;2023-12-14T10:02:10;3.40;99.90
44509;DHT22;30214;52.246;14.408;2023-12-14T10:04:43;3.50;99.90
44509;DHT22;30214;52.246;14.408;2023-12-14T10:07:11;3.50;99.90
44509;DHT22;30214;52.246;14.408;2023-12-14T10:09:40;3.50;99.90
44509;DHT22;30214;52.246;14.408;2023-12-14T10:12:10;3.40;99.90
44509;DHT22;30214;52.246;14.408;2023-12-14T10:14:39;3.40;99.90
44509;DHT22;30214;52.246;14.408;2023-12-14T10:17:19;3.30;99.90
44509;DHT22;30214;52.246;14.408;2023-12-14T10:19:55;3.40;99.90
44509;DHT22;30214;52.246;14.408;2023-12-14T10:22:22;3.50;99.90
44509;DHT22;30214;52.246;14.408;2023-12-14T10:24:54;3.60;99.90
44509;DHT22;30214;52.246;14.408;2023-12-14T10:27:25;3.70;99.90
44509;DHT22;30214;52.246;14.408;2023-12-14T10:29:56;3.70;99.90
44509;DHT22;30214;52.246;14.408;2023-12-14T10:32:27;3.70;99.90
44509;DHT22;30214;52.246;14.408;2023-12-14T10:34:56;3.70;99.90
44509;DHT22;30214;52.246;14.408;2023-12-14T10:37:26;3.70;99.90
44509;DHT22;30214;52.246;14.408;2023-12-14T10:39:55;3.70;99.90
44509;DHT22;30214;52.246;14.408;2023-12-14T10:42:27;3.70;99.90
44509;DHT22;30214;52.246;14.408;2023-12-14T10:44:55;3.70;99.90
44509;DHT22;30214;52.246;14.408;2023-12-14T10:47:30;3.70;99.90
44509;DHT22;30214;52.246;14.408;2023-12-14T10:50:00;3.80;99.90
44509;DHT22;30214;52.246;14.408;2023-12-14T10:52:29;3.80;99.90
44509;DHT22;30214;52.246;14.408;2023-12-14T10:55:02;3.80;99.90
44509;DHT22;30214;52.246;14.408;2023-12-14T10:57:34;3.70;99.90
44509;DHT22;30214;52.246;14.408;2023-12-14T11:00:03;3.80;99.90
44509;DHT22;30214;52.246;14.408;2023-12-14T11:02:39;3.90;99.90
44509;DHT22;30214;52.246;14.408;2023-12-14T11:05:11;3.90;99.90
44509;DHT22;30214;52.246;14.408;2023-12-14T11:07:49;3.90;99.90
44509;DHT22;30214;52.246;14.408;2023-12-14T11:10:23;3.90;99.90
44509;DHT22;30214;52.246;14.408;2023-12-14T11:12:56;3.80;99.90
44509;DHT22;30214;52.246;14.408;2023-12-14T11:15:28;3.80;99.90
44509;DHT22;30214;52.246;14.408;2023-12-14T11:18:23;3.70;99.90
44509;DHT22;30214;52.246;14.408;2023-12-14T11:20:58;3.70;99.90
44509;DHT22;30214;52.246;14.408;2023-12-14T11:23:32;3.70;99.90
44509;DHT22;30214;52.246;14.408;2023-12-14T11:26:02;3.80;99.90
44509;DHT22;30214;52.246;14.408;2023-12-14T11:28:31;3.70;99.90
44509;DHT22;30214;52.246;14.408;2023-12-14T11:31:01;3.60;99.90
44509;DHT22;30214;52.246;14.408;2023-12-14T11:33:38;3.60;99.90
44509;DHT22;30214;52.246;14.408;2023-12-14T11:36:06;3.60;99.90
44509;DHT22;30214;52.246;14.408;2023-12-14T11:38:35;3.70;99.90
44509;DHT22;30214;52.246;14.408;2023-12-14T11:41:02;3.70;99.90
44509;DHT22;30214;52.246;14.408;2023-12-14T11:43:33;3.70;99.90
44509;DHT22;30214;52.246;14.408;2023-12-14T11:46:10;3.60;99.90
44509;DHT22;30214;52.246;14.408;2023-12-14T11:48:43;3.60;99.90
44509;DHT22;30214;52.246;14.408;2023-12-14T11:51:11;3.60;99.90
44509;DHT22;30214;52.246;14.408;2023-12-14T11:53:39;3.40;99.90
44509;DHT22;30214;52.246;14.408;2023-12-14T11:56:09;3.50;99.90
44509;DHT22;30214;52.246;14.408;2023-12-14T11:58:36;3.50;99.90
44509;DHT22;30214;52.246;14.408;2023-12-14T12:01:12;3.40;99.90
44509;DHT22;30214;52.246;14.408;2023-12-14T12:03:42;3.40;99.90
44509;DHT22;30214;52.246;14.408;2023-12-14T12:06:19;3.40;99.90
44509;DHT22;30214;52.246;14.408;2023-12-14T12:08:51;3.40;99.90
44509;DHT22;30214;52.246;14.408;2023-12-14T12:11:20;3.30;99.90
44509;DHT22;30214;52.246;14.408;2023-12-14T12:13:52;3.30;99.90
44509;DHT22;30214;52.246;14.408;2023-12-14T12:16:21;3.30;99.90
44509;DHT22;30214;52.246;14.408;2023-12-14T12:18:52;3.30;99.90
44509;DHT22;30214;52.246;14.408;2023-12-14T12:21:20;3.30;99.90
44509;DHT22;30214;52.246;14.408;2023-12-14T12:23:47;3.40;99.90
44509;DHT22;30214;52.246;14.408;2023-12-14T12:26:15;3.40;99.90
44509;DHT22;30214;52.246;14.408;2023-12-14T12:28:42;3.40;99.90
44509;DHT22;30214;52.246;14.408;2023-12-14T12:31:13;3.50;99.90
44509;DHT22;30214;52.246;14.408;2023-12-14T12:33:41;3.60;99.90
44509;DHT22;30214;52.246;14.408;2023-12-14T12:36:10;3.70;99.90
44509;DHT22;30214;52.246;14.408;2023-12-14T12:38:38;3.80;99.90
44509;DHT22;30214;52.246;14.408;2023-12-14T12:41:06;3.80;99.90
44509;DHT22;30214;52.246;14.408;2023-12-14T12:43:34;3.70;99.90
44509;DHT22;30214;52.246;14.408;2023-12-14T12:46:02;3.70;99.90
44509;DHT22;30214;52.246;14.408;2023-12-14T12:48:29;3.70;99.90
44509;DHT22;30214;52.246;14.408;2023-12-14T12:50:57;3.70;99.90
44509;DHT22;30214;52.246;14.408;2023-12-14T12:53:26;3.70;99.90
44509;DHT22;30214;52.246;14.408;2023-12-14T12:55:53;3.70;99.90
44509;DHT22;30214;52.246;14.408;2023-12-14T12:58:21;3.70;99.90
44509;DHT22;30214;52.246;14.408;2023-12-14T13:00:48;3.80;99.90
44509;DHT22;30214;52.246;14.408;2023-12-14T13:03:15;3.80;99.90
44509;DHT22;30214;52.246;14.408;2023-12-14T13:05:43;3.80;99.90
44509;DHT22;30214;52.246;14.408;2023-12-14T13:08:10;3.80;99.90
44509;DHT22;30214;52.246;14.408;2023-12-14T13:10:39;3.80;99.90
44509;DHT22;30214;52.246;14.408;2023-12-14T13:13:06;3.70;99.90
44509;DHT22;30214;52.246;14.408;2023-12-14T13:15:34;3.80;99.90
44509;DHT22;30214;52.246;14.408;2023-12-14T13:18:02;3.80;99.90
44509;DHT22;30214;52.246;14.408;2023-12-14T13:20:29;3.70;99.90
44509;DHT22;30214;52.246;14.408;2023-12-14T13:22:57;3.80;99.90
44509;DHT22;30214;52.246;14.408;2023-12-14T13:25:24;3.80;99.90
44509;DHT22;30214;52.246;14.408;2023-12-14T13:27:56;3.90;99.90
44509;DHT22;30214;52.246;14.408;2023-12-14T13:30:23;3.90;99.90
44509;DHT22;30214;52.246;14.408;2023-12-14T13:32:52;3.90;99.90
44509;DHT22;30214;52.246;14.408;2023-12-14T13:35:20;4.00;99.90
44509;DHT22;30214;52.246;14.408;2023-12-14T13:37:50;3.80;99.90
44509;DHT22;30214;52.246;14.408;2023-12-14T13:40:17;3.70;99.90
44509;DHT22;30214;52.246;14.408;2023-12-14T13:42:45;3.80;99.90
44509;DHT22;30214;52.246;14.408;2023-12-14T13:45:14;3.70;99.90
44509;DHT22;30214;52.246;14.408;2023-12-14T13:47:41;3.80;99.90
44509;DHT22;30214;52.246;14.408;2023-12-14T13:50:09;3.80;99.90
44509;DHT22;30214;52.246;14.408;2023-12-14T13:52:36;3.80;99.90
44509;DHT22;30214;52.246;14.408;2023-12-14T13:55:04;3.70;99.90
44509;DHT22;30214;52.246;14.408;2023-12-14T13:57:32;3.70;99.90
44509;DHT22;30214;52.246;14.408;2023-12-14T14:00:00;3.70;99.90
44509;DHT22;30214;52.246;14.408;2023-12-14T14:02:28;3.80;99.90
44509;DHT22;30214;52.246;14.408;2023-12-14T14:04:55;3.70;99.90
44509;DHT22;30214;52.246;14.408;2023-12-14T14:07:23;3.70;99.90
44509;DHT22;30214;52.246;14.408;2023-12-14T14:09:51;3.70;99.90
44509;DHT22;30214;52.246;14.408;2023-12-14T14:12:18;3.70;99.90
44509;DHT22;30214;52.246;14.408;2023-12-14T14:14:46;3.70;99.90
44509;DHT22;30214;52.246;14.408;2023-12-14T14:17:13;3.70;99.90
44509;DHT22;30214;52.246;14.408;2023-12-14T14:19:42;3.60;99.90
44509;DHT22;30214;52.246;14.408;2023-12-14T14:22:09;3.70;99.90
44509;DHT22;30214;52.246;14.408;2023-12-14T14:24:37;3.60;99.90
44509;DHT22;30214;52.246;14.408;2023-12-14T14:27:04;3.50;99.90
44509;DHT22;30214;52.246;14.408;2023-12-14T14:29:32;3.60;99.90
44509;DHT22;30214;52.246;14.408;2023-12-14T14:32:00;3.60;99.90
44509;DHT22;30214;52.246;14.408;2023-12-14T14:34:28;3.60;99.90
44509;DHT22;30214;52.246;14.408;2023-12-14T14:36:58;3.70;99.90
44509;DHT22;30214;52.246;14.408;2023-12-14T14:39:26;3.80;99.90
44509;DHT22;30214;52.246;14.408;2023-12-14T14:41:53;3.80;99.90
44509;DHT22;30214;52.246;14.408;2023-12-14T14:44:21;3.80;99.90
44509;DHT22;30214;52.246;14.408;2023-12-14T14:46:49;3.80;99.90
44509;DHT22;30214;52.246;14.408;2023-12-14T14:49:25;3.70;99.90
44509;DHT22;30214;52.246;14.408;2023-12-14T14:51:52;3.70;99.90
44509;DHT22;30214;52.246;14.408;2023-12-14T14:54:21;3.60;99.90
44509;DHT22;30214;52.246;14.408;2023-12-14T14:56:49;3.50;99.90
44509;DHT22;30214;52.246;14.408;2023-12-14T14:59:16;3.60;99.90
44509;DHT22;30214;52.246;14.408;2023-12-14T15:01:44;3.50;99.90
44509;DHT22;30214;52.246;14.408;2023-12-14T15:04:13;3.60;99.90
44509;DHT22;30214;52.246;14.408;2023-12-14T15:06:41;3.60;99.90
44509;DHT22;30214;52.246;14.408;2023-12-14T15:09:08;3.70;99.90
44509;DHT22;30214;52.246;14.408;2023-12-14T15:11:38;3.70;99.90
44509;DHT22;30214;52.246;14.408;2023-12-14T15:14:07;3.70;99.90
44509;DHT22;30214;52.246;14.408;2023-12-14T15:16:34;3.70;99.90
44509;DHT22;30214;52.246;14.408;2023-12-14T15:19:02;3.70;99.90
44509;DHT22;30214;52.246;14.408;2023-12-14T15:21:30;3.70;99.90
44509;DHT22;30214;52.246;14.408;2023-12-14T15:23:57;3.60;99.90
44509;DHT22;30214;52.246;14.408;2023-12-14T15:26:25;3.50;99.90
44509;DHT22;30214;52.246;14.408;2023-12-14T15:28:57;3.60;99.90
44509;DHT22;30214;52.246;14.408;2023-12-14T15:31:25;3.60;99.90
44509;DHT22;30214;52.246;14.408;2023-12-14T15:33:53;3.60;99.90
44509;DHT22;30214;52.246;14.408;2023-12-14T15:36:23;3.60;99.90
44509;DHT22;30214;52.246;14.408;2023-12-14T15:38:52;3.70;99.90
44509;DHT22;30214;52.246;14.408;2023-12-14T15:41:19;3.70;99.90